Time;durP1;ratioP1;P1;durP2;ratioP2;P2;SDS_P1;SDS_P2;PMS_P1;PMS_P2;Temp;Humidity;BMP_temperature;BMP_pressure;BME280_temperature;BME280_humidity;BME280_pressure;Samples;Min_cycle;Max_cycle;Signal;HPM_P1;HPM_P2
2022/07/03 00:01:24;;;;;;;4.07;1.13;;;11.80;99.90;;;;;;4995380;28;20125;-90
2022/07/03 00:03:50;;;;;;;5.07;1.30;;;11.80;99.90;;;;;;4995345;28;20026;-91
2022/07/03 00:06:16;;;;;;;3.67;0.90;;;11.80;99.90;;;;;;4995301;28;20117;-92
2022/07/03 00:08:42;;;;;;;4.53;1.30;;;11.70;99.90;;;;;;4998840;28;20140;-91
2022/07/03 00:11:09;;;;;;;5.25;1.15;;;11.70;99.90;;;;;;5001163;28;20026;-92
2022/07/03 00:13:35;;;;;;;2.65;1.10;;;11.70;99.90;;;;;;5005512;28;20116;-91
2022/07/03 00:16:00;;;;;;;5.20;1.48;;;11.60;99.90;;;;;;4999833;28;20510;-91
2022/07/03 00:18:29;;;;;;;6.32;1.20;;;11.50;99.90;;;;;;5000083;28;20113;-91
2022/07/03 00:21:26;;;;;;;3.15;0.88;;;11.50;99.90;;;;;;4999229;28;20084;-91
2022/07/03 00:24:00;;;;;;;2.38;1.35;;;11.40;99.90;;;;;;4982262;28;20499;-92
2022/07/03 00:26:29;;;;;;;5.53;1.10;;;11.40;99.90;;;;;;5004971;28;20038;-91
2022/07/03 00:28:58;;;;;;;6.70;1.13;;;11.30;99.90;;;;;;5002466;28;20125;-92
2022/07/03 00:31:24;;;;;;;2.72;1.38;;;11.30;99.90;;;;;;4999347;28;20029;-92
2022/07/03 00:33:54;;;;;;;4.22;1.77;;;11.20;99.90;;;;;;4998997;28;20113;-91
2022/07/03 00:36:20;;;;;;;9.88;1.33;;;11.20;99.90;;;;;;4998884;28;20026;-92
2022/07/03 00:38:46;;;;;;;2.15;1.10;;;11.10;99.90;;;;;;4998977;28;20030;-91
2022/07/03 00:41:26;;;;;;;4.20;1.35;;;11.10;99.90;;;;;;4998953;28;20502;-89
2022/07/03 00:43:53;;;;;;;4.35;1.05;;;11.10;99.90;;;;;;4998176;28;20022;-90
2022/07/03 00:46:25;;;;;;;5.15;1.23;;;11.00;99.90;;;;;;4998523;28;20119;-91
2022/07/03 00:48:52;;;;;;;4.97;1.70;;;11.00;99.90;;;;;;4998302;28;20053;-90
2022/07/03 00:51:24;;;;;;;7.03;1.27;;;11.00;99.90;;;;;;4998328;28;20084;-91
2022/07/03 00:53:52;;;;;;;5.45;1.38;;;10.90;99.90;;;;;;4998514;28;20121;-90
2022/07/03 00:56:29;;;;;;;8.15;1.70;;;10.90;99.90;;;;;;4999733;28;20033;-91
2022/07/03 00:58:59;;;;;;;2.33;1.00;;;10.90;99.90;;;;;;4984590;28;20034;-90
2022/07/03 01:01:35;;;;;;;8.25;1.45;;;10.80;99.90;;;;;;4998976;28;20030;-91
2022/07/03 01:04:31;;;;;;;4.32;1.40;;;10.80;99.90;;;;;;4999618;28;20029;-91
2022/07/03 01:07:10;;;;;;;6.95;1.30;;;10.80;99.90;;;;;;5017492;28;20112;-90
2022/07/03 01:10:00;;;;;;;4.57;1.17;;;10.70;99.90;;;;;;4979474;28;20046;-92
2022/07/03 01:12:41;;;;;;;4.45;1.17;;;10.60;99.90;;;;;;4981896;28;20026;-90
2022/07/03 01:15:32;;;;;;;5.13;1.17;;;10.60;99.90;;;;;;4981460;28;20547;-91
2022/07/03 01:18:32;;;;;;;8.30;1.38;;;10.50;99.90;;;;;;4980838;28;20041;-91
2022/07/03 01:21:09;;;;;;;4.05;1.55;;;10.40;99.90;;;;;;4968479;28;20133;-91
2022/07/03 01:24:15;;;;;;;4.60;1.38;;;10.40;99.90;;;;;;4981098;28;20046;-91
2022/07/03 01:26:48;;;;;;;2.17;0.95;;;10.30;99.90;;;;;;5001879;28;20101;-91
2022/07/03 01:29:31;;;;;;;4.33;1.27;;;10.30;99.90;;;;;;4978249;28;20022;-91
2022/07/03 01:31:59;;;;;;;6.60;1.20;;;10.20;99.90;;;;;;4986403;28;20128;-91
2022/07/03 01:34:36;;;;;;;7.90;2.20;;;10.20;99.90;;;;;;4980526;28;20073;-91
2022/07/03 01:37:04;;;;;;;3.75;1.27;;;10.10;99.90;;;;;;4980083;28;20034;-91
2022/07/03 01:39:31;;;;;;;7.13;1.60;;;10.00;99.90;;;;;;4998919;28;20124;-92
2022/07/03 01:42:00;;;;;;;6.30;1.33;;;10.00;99.90;;;;;;4964755;28;20122;-91
2022/07/03 01:44:28;;;;;;;4.53;1.40;;;9.90;99.90;;;;;;4984062;28;20030;-91
2022/07/03 01:47:00;;;;;;;6.72;2.38;;;9.90;99.90;;;;;;4983126;28;20018;-90
2022/07/03 01:49:28;;;;;;;3.58;1.20;;;9.90;99.90;;;;;;4995155;28;20035;-91
2022/07/03 01:51:58;;;;;;;2.90;1.30;;;9.90;99.90;;;;;;4977458;28;20515;-91
2022/07/03 01:54:26;;;;;;;6.85;2.35;;;9.90;99.90;;;;;;4976988;28;20136;-90
2022/07/03 01:56:54;;;;;;;6.40;1.35;;;9.90;99.90;;;;;;4977419;28;20022;-91
2022/07/03 01:59:22;;;;;;;3.67;1.35;;;9.80;99.90;;;;;;4995497;28;20392;-91
2022/07/03 02:02:24;;;;;;;4.70;1.35;;;9.80;99.90;;;;;;4977767;28;20034;-90
2022/07/03 02:05:46;;;;;;;2.70;1.17;;;9.80;99.90;;;;;;4994724;28;20042;-91
2022/07/03 02:08:31;;;;;;;3.92;1.42;;;9.70;99.90;;;;;;4899428;29;20048;-91
2022/07/03 02:11:33;;;;;;;6.93;2.28;;;9.70;99.90;;;;;;4899027;29;20055;-90
2022/07/03 02:14:21;;;;;;;4.90;1.35;;;9.70;99.90;;;;;;4864639;29;20041;-90
2022/07/03 02:17:14;;;;;;;5.43;1.20;;;9.60;99.90;;;;;;4880990;29;20433;-92
2022/07/03 02:20:00;;;;;;;3.10;1.20;;;9.60;99.90;;;;;;4879573;29;20069;-93
2022/07/03 02:22:47;;;;;;;5.45;1.48;;;9.60;99.90;;;;;;4863199;29;20074;-92
2022/07/03 02:25:21;;;;;;;3.08;1.30;;;9.50;99.90;;;;;;4868623;29;20049;-91
2022/07/03 02:27:58;;;;;;;5.72;1.48;;;9.50;99.90;;;;;;4864274;29;20025;-90
2022/07/03 02:30:28;;;;;;;2.15;1.02;;;9.40;99.90;;;;;;4880265;29;20041;-91
2022/07/03 02:32:58;;;;;;;10.50;1.60;;;9.40;99.90;;;;;;4879601;29;20100;-91
2022/07/03 02:35:29;;;;;;;2.67;1.40;;;9.40;99.90;;;;;;4863271;29;20096;-90
2022/07/03 02:38:19;;;;;;;3.53;1.40;;;9.40;99.90;;;;;;4863581;29;20033;-92
2022/07/03 02:41:01;;;;;;;6.57;1.27;;;9.40;99.90;;;;;;4863136;29;20037;-91
2022/07/03 02:43:51;;;;;;;2.45;1.60;;;9.30;99.90;;;;;;4882506;29;20272;-90
2022/07/03 02:49:19;;;;;;;3.33;1.10;;;9.30;99.90;;;;;;4939543;28;20580;-91
2022/07/03 02:51:53;;;;;;;5.18;1.38;;;9.20;99.90;;;;;;4997245;28;20038;-89
2022/07/03 02:54:19;;;;;;;2.28;1.10;;;9.20;99.90;;;;;;4997060;28;20030;-91
2022/07/03 02:57:09;;;;;;;2.25;0.93;;;9.20;99.90;;;;;;4997546;28;20487;-92
2022/07/03 03:00:03;;;;;;;8.90;1.40;;;9.20;99.90;;;;;;5015206;28;20026;-91
2022/07/03 03:02:48;;;;;;;8.00;1.63;;;9.20;99.90;;;;;;4993705;28;20303;-92
2022/07/03 03:05:32;;;;;;;11.25;1.45;;;9.20;99.90;;;;;;4996883;28;20034;-91
2022/07/03 03:08:22;;;;;;;4.70;1.23;;;9.20;99.90;;;;;;5015405;28;20062;-91
2022/07/03 03:10:49;;;;;;;5.82;1.42;;;9.10;99.90;;;;;;5011643;28;20046;-91
2022/07/03 03:13:19;;;;;;;3.50;1.30;;;9.10;99.90;;;;;;5001199;28;20029;-91
2022/07/03 03:16:11;;;;;;;4.20;1.65;;;9.00;99.90;;;;;;4996975;28;20037;-92
2022/07/03 03:18:45;;;;;;;2.45;1.25;;;9.00;99.90;;;;;;5008597;28;20038;-92
2022/07/03 03:21:17;;;;;;;2.90;1.13;;;8.90;99.90;;;;;;4997684;28;20072;-92
2022/07/03 03:23:50;;;;;;;3.67;1.20;;;8.90;99.90;;;;;;4996817;28;20037;-91
2022/07/03 03:26:24;;;;;;;2.50;1.60;;;8.80;99.90;;;;;;5011906;28;20037;-92
2022/07/03 03:28:54;;;;;;;3.85;1.85;;;8.80;99.90;;;;;;4996896;28;20479;-91
2022/07/03 03:31:21;;;;;;;4.43;1.60;;;8.70;99.90;;;;;;4996435;28;20030;-91
2022/07/03 03:33:50;;;;;;;4.93;1.33;;;8.70;99.90;;;;;;4996856;28;20037;-92
2022/07/03 03:36:21;;;;;;;3.90;1.67;;;8.70;99.90;;;;;;4996231;28;20076;-92
2022/07/03 03:38:49;;;;;;;6.32;1.30;;;8.70;99.90;;;;;;4996466;28;20026;-92
2022/07/03 03:41:16;;;;;;;6.75;1.58;;;8.70;99.90;;;;;;4996463;28;20026;-90
2022/07/03 03:43:43;;;;;;;4.32;1.50;;;8.60;99.90;;;;;;4999652;28;20054;-91
2022/07/03 03:46:09;;;;;;;3.92;1.35;;;8.60;99.90;;;;;;4999407;28;20022;-91
2022/07/03 03:48:35;;;;;;;8.05;1.60;;;8.60;99.90;;;;;;5017621;28;20109;-90
2022/07/03 03:51:04;;;;;;;2.55;1.40;;;8.60;99.90;;;;;;5019382;28;20109;-91
2022/07/03 03:53:30;;;;;;;3.78;1.50;;;8.60;99.90;;;;;;5000255;28;20022;-92
2022/07/03 03:56:08;;;;;;;3.50;1.20;;;8.60;99.90;;;;;;4999094;28;20125;-92
2022/07/03 03:58:36;;;;;;;5.43;1.40;;;8.70;99.90;;;;;;4999254;28;20030;-92
2022/07/03 04:01:04;;;;;;;3.50;1.77;;;8.70;99.90;;;;;;4999375;28;20026;-91
2022/07/03 04:03:30;;;;;;;4.45;1.50;;;8.70;99.90;;;;;;4999966;28;20479;-91
2022/07/03 04:05:57;;;;;;;3.15;1.30;;;8.70;99.90;;;;;;5003801;28;20036;-92
2022/07/03 04:08:24;;;;;;;2.08;1.77;;;8.80;99.90;;;;;;5002032;28;20078;-91
2022/07/03 04:10:50;;;;;;;6.53;1.83;;;8.80;99.90;;;;;;5001141;28;20038;-91
2022/07/03 04:13:17;;;;;;;2.60;1.30;;;8.90;99.90;;;;;;5000128;28;20104;-91
2022/07/03 04:15:43;;;;;;;3.15;1.38;;;8.90;99.90;;;;;;4999796;28;20034;-90
2022/07/03 04:18:09;;;;;;;2.70;1.58;;;8.90;99.90;;;;;;5017733;28;20030;-92
2022/07/03 04:20:37;;;;;;;2.72;1.20;;;8.90;99.90;;;;;;5000373;28;20053;-91
2022/07/03 04:23:03;;;;;;;5.50;1.65;;;8.90;99.90;;;;;;5016844;28;20108;-91
2022/07/03 04:25:29;;;;;;;5.30;1.33;;;9.00;99.90;;;;;;4983407;28;20466;-92
2022/07/03 04:27:54;;;;;;;2.08;1.33;;;9.00;99.90;;;;;;4999915;28;20494;-92
2022/07/03 04:30:20;;;;;;;3.20;1.23;;;9.00;99.90;;;;;;4999416;28;20041;-91
2022/07/03 04:32:47;;;;;;;5.22;1.58;;;9.10;99.90;;;;;;4999230;28;20026;-92
2022/07/03 04:35:15;;;;;;;3.67;1.30;;;9.10;99.90;;;;;;4983550;28;20033;-91
2022/07/03 04:37:43;;;;;;;3.65;1.23;;;9.10;99.90;;;;;;4998622;28;20026;-91
2022/07/03 04:40:10;;;;;;;2.75;1.20;;;9.10;99.90;;;;;;5016277;28;20037;-91
2022/07/03 04:42:36;;;;;;;2.60;1.25;;;9.10;99.90;;;;;;4999177;28;20037;-91
2022/07/03 04:45:05;;;;;;;4.50;1.48;;;9.20;99.90;;;;;;4982553;28;20046;-90
2022/07/03 04:47:34;;;;;;;2.92;1.27;;;9.20;99.90;;;;;;5016247;28;20564;-91
2022/07/03 04:50:03;;;;;;;3.25;1.65;;;9.10;99.90;;;;;;5016494;28;20050;-90
2022/07/03 04:52:29;;;;;;;5.97;1.48;;;9.20;99.90;;;;;;5006212;28;20126;-91
2022/07/03 04:54:57;;;;;;;8.02;1.42;;;9.20;99.90;;;;;;4999290;28;20049;-90
2022/07/03 04:57:23;;;;;;;3.17;1.30;;;9.20;99.90;;;;;;4999230;28;20132;-90
2022/07/03 04:59:53;;;;;;;3.42;1.35;;;9.30;99.90;;;;;;4999131;28;20050;-92
2022/07/03 05:02:18;;;;;;;3.38;1.25;;;9.30;99.90;;;;;;4998749;28;20026;-91
2022/07/03 05:04:44;;;;;;;3.92;1.40;;;9.40;99.90;;;;;;4999483;28;20577;-89
2022/07/03 05:07:11;;;;;;;8.10;1.55;;;9.50;99.90;;;;;;5015986;28;20053;-91
2022/07/03 05:09:38;;;;;;;4.72;1.40;;;9.50;99.90;;;;;;4998725;28;20165;-91
2022/07/03 05:12:04;;;;;;;5.13;1.60;;;9.60;99.90;;;;;;5004709;28;20321;-91
2022/07/03 05:14:32;;;;;;;7.05;1.92;;;9.70;99.90;;;;;;5010025;28;20067;-91
2022/07/03 05:16:57;;;;;;;5.47;1.95;;;9.70;99.90;;;;;;5006449;28;20417;-90
2022/07/03 05:19:23;;;;;;;5.63;1.50;;;9.80;99.90;;;;;;5000831;28;20038;-91
2022/07/03 05:21:49;;;;;;;3.95;1.38;;;9.80;99.90;;;;;;4982397;28;20387;-90
2022/07/03 05:24:14;;;;;;;6.65;1.60;;;9.90;99.90;;;;;;4998454;28;20030;-92
2022/07/03 05:26:40;;;;;;;3.40;1.30;;;9.90;99.90;;;;;;4998610;28;20117;-91
2022/07/03 05:29:06;;;;;;;12.07;1.98;;;10.00;99.90;;;;;;4998108;28;20372;-90
2022/07/03 05:31:31;;;;;;;3.88;1.33;;;10.00;99.90;;;;;;5016436;28;20025;-91
2022/07/03 05:33:57;;;;;;;5.40;1.35;;;10.00;99.90;;;;;;4997458;28;20022;-91
2022/07/03 05:36:23;;;;;;;6.32;1.75;;;10.10;99.90;;;;;;4997805;28;20073;-91
2022/07/03 05:41:34;;;;;;;6.13;1.50;;;10.10;99.90;;;;;;5016062;28;20041;-90
2022/07/03 05:43:59;;;;;;;5.63;1.30;;;10.20;99.90;;;;;;4997662;28;20033;-90
2022/07/03 05:46:25;;;;;;;10.45;3.53;;;10.20;99.90;;;;;;4997614;28;20045;-90
2022/07/03 05:48:51;;;;;;;5.20;1.35;;;10.20;99.90;;;;;;4997594;28;20066;-90
2022/07/03 05:51:16;;;;;;;4.32;1.67;;;10.30;99.90;;;;;;4997594;28;20443;-90
2022/07/03 05:53:42;;;;;;;2.58;1.55;;;10.30;99.90;;;;;;4997284;28;20022;-90
2022/07/03 05:56:07;;;;;;;4.55;1.70;;;10.40;99.90;;;;;;4998822;28;20145;-90
2022/07/03 05:58:33;;;;;;;6.82;1.50;;;10.40;99.90;;;;;;4996663;28;20037;-91
2022/07/03 06:00:59;;;;;;;2.75;1.38;;;10.40;99.90;;;;;;5001217;28;20041;-92
2022/07/03 06:03:24;;;;;;;3.95;1.58;;;10.50;99.90;;;;;;5002031;28;20060;-90
2022/07/03 06:05:50;;;;;;;4.78;1.50;;;10.50;99.90;;;;;;4997190;28;20040;-90
2022/07/03 06:08:16;;;;;;;3.05;1.58;;;10.50;99.90;;;;;;4998408;28;20503;-90
2022/07/03 06:10:41;;;;;;;4.05;1.52;;;10.50;99.90;;;;;;4975445;28;20488;-92
2022/07/03 06:13:08;;;;;;;5.95;1.88;;;10.50;99.90;;;;;;4997187;28;20113;-92
2022/07/03 06:15:33;;;;;;;7.75;1.58;;;10.60;99.90;;;;;;4997607;28;20053;-91
2022/07/03 06:17:59;;;;;;;6.05;1.35;;;10.60;99.90;;;;;;4997957;28;20045;-91
2022/07/03 06:20:25;;;;;;;4.45;1.60;;;10.60;99.90;;;;;;4997539;28;20026;-91
2022/07/03 06:22:52;;;;;;;5.90;1.20;;;10.60;99.90;;;;;;4998828;28;20026;-91
2022/07/03 06:25:19;;;;;;;5.95;1.60;;;10.70;99.90;;;;;;5007715;28;20022;-90
2022/07/03 06:27:44;;;;;;;3.00;1.20;;;10.70;99.90;;;;;;5002885;28;20038;-91
2022/07/03 06:30:13;;;;;;;2.20;1.23;;;10.80;99.90;;;;;;5020024;28;20529;-91
2022/07/03 06:32:39;;;;;;;7.88;1.63;;;10.80;99.90;;;;;;4998866;28;20018;-90
2022/07/03 06:35:05;;;;;;;7.22;1.80;;;10.80;99.90;;;;;;4997103;28;20196;-91
2022/07/03 06:37:31;;;;;;;4.57;1.50;;;10.80;99.90;;;;;;4997705;28;20364;-91
2022/07/03 06:39:56;;;;;;;3.55;1.50;;;10.80;99.90;;;;;;4997894;28;20033;-90
2022/07/03 06:42:23;;;;;;;6.47;1.95;;;10.80;99.90;;;;;;4993817;28;20144;-91
2022/07/03 06:44:51;;;;;;;5.70;1.70;;;10.90;99.90;;;;;;4996389;28;20033;-91
2022/07/03 06:47:18;;;;;;;4.80;1.70;;;10.90;99.90;;;;;;5013773;28;20079;-91
2022/07/03 06:49:43;;;;;;;6.85;2.45;;;11.00;99.90;;;;;;4995142;28;20046;-91
2022/07/03 06:52:11;;;;;;;5.28;1.52;;;11.00;99.90;;;;;;4995337;28;20112;-90
2022/07/03 06:54:39;;;;;;;6.40;1.60;;;11.00;99.90;;;;;;4991854;28;20025;-91
2022/07/03 06:57:05;;;;;;;7.10;3.20;;;11.00;99.90;;;;;;4993195;28;20195;-91
2022/07/03 06:59:31;;;;;;;5.00;1.52;;;11.10;99.90;;;;;;4972372;28;20133;-90
2022/07/03 07:01:57;;;;;;;8.93;1.60;;;11.10;99.90;;;;;;4995088;28;20790;-91
2022/07/03 07:04:22;;;;;;;5.72;1.55;;;11.20;99.90;;;;;;5000887;28;20026;-90
2022/07/03 07:06:48;;;;;;;3.17;1.52;;;11.30;99.90;;;;;;4995712;28;20042;-91
2022/07/03 07:09:14;;;;;;;3.72;1.70;;;11.40;99.90;;;;;;4995979;28;20049;-91
2022/07/03 07:11:43;;;;;;;8.98;3.58;;;11.50;99.90;;;;;;4996031;28;20021;-90
2022/07/03 07:14:09;;;;;;;4.93;1.98;;;11.50;99.90;;;;;;4996176;28;20018;-90
2022/07/03 07:16:34;;;;;;;11.00;3.20;;;11.60;99.90;;;;;;4996546;28;20026;-91
2022/07/03 07:19:00;;;;;;;7.40;2.00;;;11.70;99.90;;;;;;4999857;28;20025;-91
2022/07/03 07:21:26;;;;;;;5.38;2.35;;;11.80;99.90;;;;;;4999585;28;20028;-90
2022/07/03 07:23:52;;;;;;;6.28;2.35;;;11.90;99.90;;;;;;4975183;28;20068;-90
2022/07/03 07:26:20;;;;;;;6.30;1.90;;;12.00;99.90;;;;;;4998612;28;20034;-90
2022/07/03 07:28:46;;;;;;;6.85;2.85;;;12.10;99.90;;;;;;4999308;28;20054;-91
2022/07/03 07:31:12;;;;;;;7.85;3.35;;;12.30;99.90;;;;;;4999505;28;20038;-90
2022/07/03 07:33:38;;;;;;;7.45;2.83;;;12.40;99.90;;;;;;4999360;28;20034;-90
2022/07/03 07:36:04;;;;;;;7.75;3.08;;;12.60;99.90;;;;;;4974899;28;20039;-92
2022/07/03 07:38:29;;;;;;;4.60;2.63;;;12.70;99.90;;;;;;4999895;28;20540;-90
2022/07/03 07:40:55;;;;;;;7.95;3.55;;;12.90;99.90;;;;;;4998133;28;20561;-89
2022/07/03 07:43:21;;;;;;;5.25;2.35;;;13.00;99.90;;;;;;4998455;28;20032;-90
2022/07/03 07:45:48;;;;;;;7.95;3.13;;;13.10;99.90;;;;;;4998855;28;20041;-91
2022/07/03 07:48:13;;;;;;;9.55;2.92;;;13.20;99.90;;;;;;5001492;28;20034;-89
2022/07/03 07:50:39;;;;;;;8.55;3.67;;;13.30;99.90;;;;;;5001156;28;20255;-89
2022/07/03 07:53:05;;;;;;;8.23;4.13;;;13.50;99.90;;;;;;4995187;28;20029;-89
2022/07/03 07:55:30;;;;;;;7.93;4.50;;;13.60;99.90;;;;;;4999589;28;20113;-89
2022/07/03 07:57:56;;;;;;;7.68;4.53;;;13.80;99.90;;;;;;4978842;28;20045;-90
2022/07/03 08:00:23;;;;;;;10.02;4.75;;;13.90;99.90;;;;;;5001375;28;20483;-89
2022/07/03 08:05:37;;;;;;;9.73;4.30;;;14.20;99.90;;;;;;5020822;28;20037;-90
2022/07/03 08:08:02;;;;;;;5.18;3.28;;;14.40;99.90;;;;;;5008643;28;20046;-89
2022/07/03 08:10:28;;;;;;;3.53;3.20;;;14.60;99.90;;;;;;5008276;28;20056;-89
2022/07/03 08:12:54;;;;;;;9.70;3.38;;;14.70;99.90;;;;;;5003095;28;20025;-91
2022/07/03 08:15:20;;;;;;;7.10;3.15;;;14.70;99.90;;;;;;5001393;28;20199;-90
2022/07/03 08:17:45;;;;;;;5.80;3.33;;;14.80;99.90;;;;;;5017115;28;20058;-90
2022/07/03 08:20:11;;;;;;;4.72;3.28;;;14.90;99.90;;;;;;5000077;28;20029;-89
2022/07/03 08:22:37;;;;;;;7.47;3.33;;;15.00;99.90;;;;;;4997083;28;20060;-89
2022/07/03 08:25:03;;;;;;;4.15;3.20;;;15.00;99.90;;;;;;4996694;28;20121;-89
2022/07/03 08:27:29;;;;;;;3.53;2.97;;;15.10;99.90;;;;;;4997256;28;20133;-90
2022/07/03 08:29:54;;;;;;;5.43;2.88;;;15.20;99.90;;;;;;4999052;28;20030;-88
2022/07/03 08:32:20;;;;;;;4.43;2.78;;;15.30;99.90;;;;;;4992609;28;20117;-88
2022/07/03 08:34:45;;;;;;;3.63;2.80;;;15.40;99.90;;;;;;5015382;28;20029;-89
2022/07/03 08:37:11;;;;;;;3.70;2.60;;;15.50;99.90;;;;;;4997534;28;20017;-89
2022/07/03 08:39:37;;;;;;;7.25;2.47;;;15.60;99.90;;;;;;4994840;28;20026;-92
2022/07/03 08:42:05;;;;;;;4.03;2.13;;;15.70;99.90;;;;;;4997218;28;20025;-89
2022/07/03 08:44:31;;;;;;;3.67;1.92;;;15.80;99.90;;;;;;4997549;28;20038;-91
2022/07/03 08:46:59;;;;;;;4.25;2.90;;;15.80;99.90;;;;;;4997074;28;20029;-90
2022/07/03 08:49:26;;;;;;;5.43;2.10;;;15.90;99.90;;;;;;4996756;28;20077;-90
2022/07/03 08:51:53;;;;;;;3.97;2.60;;;15.90;99.90;;;;;;4997405;28;20057;-90
2022/07/03 08:54:19;;;;;;;2.15;1.80;;;15.90;99.90;;;;;;4999462;28;20068;-90
2022/07/03 08:56:45;;;;;;;2.25;2.00;;;16.00;99.90;;;;;;4997267;28;20172;-89
2022/07/03 08:59:13;;;;;;;5.10;2.40;;;15.90;99.90;;;;;;4986765;28;20069;-91
2022/07/03 09:01:44;;;;;;;2.65;1.88;;;15.90;99.90;;;;;;5010401;28;20022;-90
2022/07/03 09:04:13;;;;;;;4.38;1.92;;;15.90;99.90;;;;;;4989649;28;20026;-90
2022/07/03 09:06:42;;;;;;;7.38;2.28;;;16.00;99.90;;;;;;4987097;28;20027;-90
2022/07/03 09:09:09;;;;;;;5.72;2.05;;;16.00;99.90;;;;;;5010790;28;20480;-89
2022/07/03 09:11:37;;;;;;;2.78;1.98;;;16.00;99.90;;;;;;4985658;28;20100;-89
2022/07/03 09:14:06;;;;;;;5.07;2.30;;;16.00;99.90;;;;;;4992670;28;20030;-90
2022/07/03 09:16:36;;;;;;;5.00;1.90;;;16.10;99.90;;;;;;4984912;28;20022;-91
2022/07/03 09:19:03;;;;;;;3.13;2.00;;;16.20;99.90;;;;;;4987329;28;20022;-91
2022/07/03 09:21:39;;;;;;;4.18;1.80;;;16.30;99.90;;;;;;4984238;28;20037;-90
2022/07/03 09:24:07;;;;;;;3.63;1.67;;;16.20;99.90;;;;;;4993591;28;20030;-90
2022/07/03 09:26:33;;;;;;;2.97;1.27;;;16.20;99.90;;;;;;4993281;28;20060;-89
2022/07/03 09:28:59;;;;;;;4.85;1.92;;;16.20;99.90;;;;;;4985248;28;20038;-89
2022/07/03 09:31:27;;;;;;;2.80;1.65;;;16.10;99.90;;;;;;4993430;28;20393;-90
2022/07/03 09:33:59;;;;;;;3.30;1.80;;;16.10;99.90;;;;;;4999073;28;20033;-91
2022/07/03 09:36:40;;;;;;;5.93;1.70;;;16.00;99.90;;;;;;4999580;28;20042;-92
2022/07/03 09:39:26;;;;;;;4.60;1.75;;;16.00;99.90;;;;;;4994764;28;20026;-90
2022/07/03 09:42:03;;;;;;;3.10;1.50;;;16.00;99.90;;;;;;4992446;28;20026;-91
2022/07/03 09:44:42;;;;;;;4.40;2.22;;;16.00;99.90;;;;;;4988362;28;20601;-90
2022/07/03 09:47:19;;;;;;;12.45;3.85;;;16.20;99.90;;;;;;4985046;28;20429;-90
2022/07/03 09:49:47;;;;;;;2.88;1.55;;;16.20;99.90;;;;;;4991997;28;20041;-90
2022/07/03 09:52:34;;;;;;;3.75;2.10;;;16.40;99.90;;;;;;4985259;28;20117;-89
2022/07/03 09:55:09;;;;;;;3.58;1.30;;;16.40;99.90;;;;;;4985931;28;20030;-91
2022/07/03 09:57:50;;;;;;;3.00;1.38;;;16.40;99.90;;;;;;4987588;28;20036;-90
2022/07/03 10:00:21;;;;;;;2.47;1.10;;;16.40;99.90;;;;;;4991622;28;20118;-91
2022/07/03 10:03:01;;;;;;;3.63;1.27;;;16.40;99.90;;;;;;4990249;28;20033;-90
2022/07/03 10:05:31;;;;;;;3.97;1.15;;;16.30;99.90;;;;;;4993089;28;20018;-91
2022/07/03 10:08:01;;;;;;;3.80;1.30;;;16.30;99.90;;;;;;4985862;28;20496;-89
2022/07/03 10:10:29;;;;;;;0.90;0.70;;;16.30;99.90;;;;;;4985257;28;20034;-90
2022/07/03 10:12:56;;;;;;;1.75;0.80;;;16.40;99.90;;;;;;4991347;28;20084;-91
2022/07/03 10:15:23;;;;;;;2.47;0.88;;;16.40;99.90;;;;;;4982374;28;20034;-90
2022/07/03 10:17:51;;;;;;;9.27;1.10;;;16.50;99.90;;;;;;4985690;28;20023;-90
2022/07/03 10:20:29;;;;;;;2.13;0.95;;;16.50;99.90;;;;;;4985430;28;20049;-90
2022/07/03 10:22:56;;;;;;;4.90;0.90;;;16.60;99.90;;;;;;4992962;28;20029;-90
2022/07/03 10:25:22;;;;;;;1.63;1.30;;;16.70;99.90;;;;;;4996403;28;20036;-90
2022/07/03 10:27:49;;;;;;;3.45;1.10;;;16.60;99.90;;;;;;4996966;28;20029;-90
2022/07/03 10:30:17;;;;;;;5.32;1.35;;;16.50;99.90;;;;;;4996949;28;20042;-90
2022/07/03 10:32:49;;;;;;;5.35;1.42;;;16.50;99.90;;;;;;4996672;28;20022;-89
2022/07/03 10:35:26;;;;;;;4.45;1.10;;;16.40;99.90;;;;;;4997292;28;20118;-90
2022/07/03 10:38:12;;;;;;;5.72;1.35;;;16.50;99.90;;;;;;4997213;28;20026;-89
2022/07/03 10:46:36;;;;;;;2.33;0.90;;;17.00;99.90;;;;;;5013431;28;20032;-90
2022/07/03 10:49:06;;;;;;;2.25;0.95;;;17.30;99.90;;;;;;4992462;28;20034;-90
2022/07/03 10:51:59;;;;;;;2.67;0.90;;;17.70;99.90;;;;;;4995896;28;20029;-90
2022/07/03 10:54:36;;;;;;;3.63;1.08;;;18.10;99.90;;;;;;4995633;28;20037;-90
2022/07/03 10:57:06;;;;;;;4.55;1.30;;;18.40;99.90;;;;;;4992235;28;20060;-90
2022/07/03 10:59:50;;;;;;;4.57;1.10;;;18.70;99.90;;;;;;4986319;28;20117;-92
2022/07/03 11:02:31;;;;;;;3.65;1.50;;;19.00;99.20;;;;;;4982284;28;20037;-91
2022/07/03 11:04:57;;;;;;;5.28;1.10;;;19.20;98.30;;;;;;4995820;28;20030;-91
2022/07/03 11:07:24;;;;;;;3.63;1.10;;;19.30;97.80;;;;;;4983829;28;20037;-92
2022/07/03 11:10:08;;;;;;;3.72;0.98;;;19.40;97.30;;;;;;4989728;28;20136;-91
2022/07/03 11:12:58;;;;;;;4.03;1.00;;;19.40;95.20;;;;;;4977960;28;20034;-92
2022/07/03 11:15:32;;;;;;;1.27;0.73;;;19.40;94.50;;;;;;4990334;28;20035;-92
2022/07/03 11:18:34;;;;;;;2.25;1.02;;;19.40;94.20;;;;;;4988339;28;20022;-90
2022/07/03 11:21:15;;;;;;;3.28;0.75;;;19.50;93.40;;;;;;4986957;28;20022;-90
2022/07/03 11:24:16;;;;;;;4.80;0.90;;;19.50;92.70;;;;;;4987007;28;20026;-91
2022/07/03 11:26:42;;;;;;;;;;;19.70;91.50;;;;;;4984431;28;20053;-90
2022/07/03 11:29:25;;;;;;;1.42;0.80;;;19.80;90.20;;;;;;4988018;28;19984;-91
2022/07/03 11:31:51;;;;;;;4.35;0.90;;;20.00;87.60;;;;;;4982108;28;20038;-92
2022/07/03 11:34:21;;;;;;;1.65;0.70;;;20.10;86.90;;;;;;4981697;28;20145;-92
2022/07/03 11:36:47;;;;;;;1.88;0.80;;;20.30;85.60;;;;;;4996762;28;20025;-92
2022/07/03 11:39:15;;;;;;;1.73;0.70;;;20.50;84.10;;;;;;5004589;28;20040;-91
2022/07/03 11:41:42;;;;;;;2.55;0.77;;;20.50;82.70;;;;;;4995709;28;20058;-92
2022/07/03 11:44:19;;;;;;;2.35;0.63;;;20.70;82.90;;;;;;4988989;28;20030;-91
2022/07/03 11:46:50;;;;;;;4.57;0.90;;;20.70;82.10;;;;;;4988744;28;20078;-92
2022/07/03 11:49:20;;;;;;;;;;;20.80;81.60;;;;;;4990684;28;20038;-91
2022/07/03 11:52:00;;;;;;;3.03;1.00;;;20.80;81.70;;;;;;4988482;28;19909;-91
2022/07/03 11:54:30;;;;;;;1.35;0.60;;;20.90;81.50;;;;;;4988325;28;20030;-91
2022/07/03 11:56:56;;;;;;;1.15;0.70;;;20.80;80.70;;;;;;4982341;28;20029;-91
2022/07/03 11:59:22;;;;;;;2.33;0.55;;;20.80;80.30;;;;;;4986922;28;20102;-90
2022/07/03 12:01:48;;;;;;;3.20;1.00;;;20.80;79.90;;;;;;4983414;28;20459;-89
2022/07/03 12:04:19;;;;;;;3.50;1.50;;;20.90;79.70;;;;;;4999185;28;20099;-88
2022/07/03 12:06:51;;;;;;;3.08;0.90;;;21.10;79.70;;;;;;4998898;28;20060;-91
2022/07/03 12:09:24;;;;;;;4.07;0.80;;;21.30;78.70;;;;;;4996980;28;20112;-88
2022/07/03 12:12:02;;;;;;;3.92;0.75;;;21.40;78.40;;;;;;4987719;28;20028;-87
2022/07/03 12:14:46;;;;;;;3.70;0.85;;;21.40;77.50;;;;;;4982554;28;20053;-88
2022/07/03 12:17:18;;;;;;;5.07;0.60;;;21.50;77.80;;;;;;5017732;28;20029;-90
2022/07/03 12:19:55;;;;;;;2.45;0.77;;;21.60;77.70;;;;;;4997220;28;20018;-90
2022/07/03 12:22:37;;;;;;;2.13;0.70;;;21.60;75.30;;;;;;5002977;28;20026;-89
2022/07/03 12:25:08;;;;;;;2.63;0.68;;;21.60;75.50;;;;;;5011632;28;20026;-90
2022/07/03 12:27:37;;;;;;;1.95;0.90;;;21.40;75.30;;;;;;5016592;28;20093;-89
2022/07/03 12:30:04;;;;;;;4.75;0.65;;;21.40;75.60;;;;;;5008994;28;20033;-91
2022/07/03 12:32:30;;;;;;;5.28;0.75;;;21.20;74.70;;;;;;4999246;28;20030;-90
2022/07/03 12:34:57;;;;;;;0.75;0.65;;;21.00;73.90;;;;;;4998579;28;20467;-90
2022/07/03 12:37:44;;;;;;;1.33;0.70;;;20.80;74.00;;;;;;4990957;28;20113;-91
2022/07/03 12:40:13;;;;;;;2.95;0.80;;;20.70;75.80;;;;;;4998505;28;20036;-89
2022/07/03 12:42:51;;;;;;;2.17;0.73;;;20.70;75.10;;;;;;4993804;28;20018;-87
2022/07/03 12:45:25;;;;;;;3.92;0.80;;;20.60;75.10;;;;;;4995483;28;20018;-89
2022/07/03 12:48:04;;;;;;;2.72;0.70;;;20.50;75.20;;;;;;4990888;28;20072;-91
2022/07/03 12:50:52;;;;;;;1.52;0.70;;;20.40;75.60;;;;;;4995260;28;20034;-87
2022/07/03 12:53:27;;;;;;;3.55;0.95;;;20.40;75.30;;;;;;4998948;28;20030;-90
2022/07/03 12:56:03;;;;;;;2.97;0.90;;;20.20;75.60;;;;;;4995526;28;20273;-90
2022/07/03 13:01:36;;;;;;;4.82;0.85;;;20.20;76.10;;;;;;4981370;28;20122;-89
2022/07/03 13:04:03;;;;;;;;;;;20.20;76.00;;;;;;4980042;28;20049;-90
2022/07/03 13:06:28;;;;;;;2.95;1.02;;;20.20;76.10;;;;;;4979886;28;19910;-89
2022/07/03 13:08:58;;;;;;;3.55;1.15;;;20.20;76.10;;;;;;4984005;28;20046;-90
2022/07/03 13:11:42;;;;;;;2.53;1.00;;;20.00;76.40;;;;;;4980326;28;20035;-89
2022/07/03 13:14:15;;;;;;;3.13;0.93;;;19.90;77.00;;;;;;4979471;28;20129;-88
2022/07/03 13:16:45;;;;;;;1.55;0.85;;;19.90;77.40;;;;;;4979121;28;20030;-90
2022/07/03 13:19:18;;;;;;;1.50;0.60;;;19.90;77.40;;;;;;4981968;28;20026;-90
2022/07/03 13:21:45;;;;;;;1.90;0.47;;;19.90;76.50;;;;;;4999353;28;20034;-91
2022/07/03 13:24:12;;;;;;;3.35;0.60;;;19.90;76.20;;;;;;4998838;28;20061;-90
2022/07/03 13:26:39;;;;;;;0.98;0.40;;;19.90;75.70;;;;;;5003190;28;20018;-90
2022/07/03 13:29:06;;;;;;;12.80;1.23;;;19.90;75.80;;;;;;4998891;28;20021;-89